Latest Weather Observations for Charlton

IDV60801

Issued at 9:12 pm EST Thursday 24 September 2020 (issued every 10 minutes, with the page automatically refreshed every 10 minutes)

About weather observations | Map of weather stations | Latest weather observations for VIC | Other Formats
Station Details ID: 080128 Name: CHARLTON Lat: -36.28 Lon: 143.33 Height: 131.7 m
Data from the previous 72 hours. | See also: Recent months at Charlton
Date/Time
EST
Temp
°C
App
Temp
°C
Dew
Point
°C
Rel
Hum
%
Delta-T
°C
Wind Press
QNH
hPa
Press
MSL
hPa
Rain since
9am
mm
Dir  Spd
km/h
Gust
km/h
Spd
kts
Gust
kts
24/09:00pm 7.0 5.0 7.0 100 0.0 NNW 7 11 4 6 1009.2 1009.3 10.4
24/08:30pm 6.8 3.6 6.7 99 0.0 WNW 13 26 7 14 1009.8 1009.9 6.0
24/08:00pm 8.9 7.3 8.8 99 0.0 NW 7 11 4 6 1008.5 1008.6 2.0
24/07:30pm 9.7 7.2 8.0 89 0.8 N 11 19 6 10 1008.9 1009.0 0.6
24/07:00pm 9.6 6.3 8.0 90 0.8 N 15 20 8 11 1008.4 1008.5 0.4
24/06:30pm 9.6 7.1 8.4 92 0.6 N 11 15 6 8 1008.8 1008.9 0.2
24/06:00pm 9.7 5.4 8.0 89 0.8 NW 20 32 11 17 1009.1 1009.2 0.2
24/05:30pm 10.8 8.2 7.7 81 1.5 NNW 11 19 6 10 1008.9 1009.0 0.0
24/05:00pm 10.6 8.4 7.7 82 1.4 NW 9 19 5 10 1008.9 1009.0 0.0
24/04:30pm 10.2 7.3 8.3 88 0.9 W 13 20 7 11 1009.3 1009.4 0.0
24/04:00pm 13.6 9.0 3.9 52 4.4 NNW 17 28 9 15 1009.0 1009.1 0.0
24/03:30pm 13.8 9.2 3.9 51 4.5 NNW 17 28 9 15 1009.3 1009.4 0.0
24/03:00pm 13.9 9.3 3.7 50 4.7 NNW 17 28 9 15 1009.7 1009.8 0.0
24/02:30pm 13.6 8.8 2.8 48 4.8 NW 17 24 9 13 1010.6 1010.6 0.0
24/02:00pm 14.0 10.3 4.3 52 4.5 NNW 13 22 7 12 1011.2 1011.2 0.0
24/01:30pm 13.1 8.0 2.9 50 4.5 NNW 19 30 10 16 1011.8 1011.8 0.0
24/01:00pm 13.4 8.8 3.5 51 4.5 NW 17 26 9 14 1012.6 1012.6 0.0
24/12:30pm 13.9 9.7 3.7 50 4.7 WNW 15 22 8 12 1013.1 1013.1 0.0
24/12:00pm 12.0 7.8 3.8 57 3.7 NW 15 24 8 13 1013.8 1013.8 0.0
24/11:30am 13.4 9.4 5.1 57 3.9 WNW 15 26 8 14 1014.1 1014.1 0.0
24/11:00am 12.0 8.1 5.4 64 3.1 NW 15 24 8 13 1014.7 1014.8 0.0
24/10:30am 11.0 7.5 5.5 69 2.5 WNW 13 20 7 11 1015.3 1015.4 0.0
24/10:00am 10.0 6.9 7.3 83 1.3 WNW 13 20 7 11 1015.6 1015.7 0.0
24/09:30am 9.1 7.1 8.5 96 0.3 NW 9 17 5 9 1015.6 1015.7 0.0
24/09:00am 7.0 5.0 7.0 100 0.0 NW 7 13 4 7 1016.0 1016.1 1.4
24/08:30am 5.8 3.1 5.8 100 0.0 WNW 9 17 5 9 1016.2 1016.3 1.4
24/08:00am 4.7 2.2 4.7 100 0.0 NW 7 11 4 6 1015.9 1016.0 1.4
24/07:30am 4.0 1.4 4.0 100 0.0 NW 7 11 4 6 1016.0 1016.1 1.4
24/07:00am 3.8 1.1 3.8 100 0.0 WNW 7 11 4 6 1015.7 1015.8 1.4
24/06:30am 3.4 0.6 3.4 100 0.0 NW 7 9 4 5 1015.6 1015.7 1.4
24/06:00am 3.7 0.6 3.7 100 0.0 WNW 9 15 5 8 1015.4 1015.5 1.4
24/05:30am 3.4 0.3 3.4 100 0.0 WNW 9 13 5 7 1015.4 1015.5 1.4
24/05:00am 3.7 1.0 3.7 100 0.0 WNW 7 11 4 6 1015.1 1015.2 1.4
24/04:30am 3.4 0.3 3.4 100 0.0 WNW 9 15 5 8 1015.3 1015.4 1.2
24/04:00am 3.5 0.8 3.5 100 0.0 WNW 7 11 4 6 1015.2 1015.3 1.2
24/03:30am 4.0 1.0 4.0 100 0.0 W 9 15 5 8 1015.1 1015.2 1.2
24/03:00am 3.9 0.8 3.8 99 0.0 WNW 9 15 5 8 1015.2 1015.3 1.2
24/02:30am 4.5 1.9 4.4 99 0.0 W 7 13 4 7 1015.3 1015.4 1.2
24/02:00am 5.1 1.9 5.0 99 0.0 W 11 19 6 10 1015.6 1015.7 1.2
24/01:30am 5.3 2.5 5.2 99 0.0 W 9 15 5 8 1015.9 1016.0 1.2
24/01:00am 5.5 2.0 5.4 99 0.0 W 13 20 7 11 1016.1 1016.2 1.2
24/12:30am 5.9 2.4 5.6 98 0.1 W 13 20 7 11 1016.2 1016.3 1.2
24/12:00am 6.4 2.6 5.7 95 0.3 W 15 22 8 12 1016.3 1016.4 1.2
 
Date/Time
EST
Temp
°C
App
Temp
°C
Dew
Point
°C
Rel
Hum
%
Delta-T
°C
Wind Press
QNH
hPa
Press
MSL
hPa
Rain since
9am
mm
Dir  Spd
km/h
Gust
km/h
Spd
kts
Gust
kts
23/11:30pm 6.4 3.3 5.7 95 0.3 W 11 17 6 9 1016.3 1016.4 1.2
23/11:00pm 7.0 4.0 5.8 92 0.5 W 11 19 6 10 1016.4 1016.5 1.2
23/10:30pm 7.5 4.6 6.3 92 0.6 W 11 19 6 10 1016.6 1016.7 1.2
23/10:00pm 8.1 4.5 6.7 91 0.6 W 15 20 8 11 1016.7 1016.8 1.2
23/09:30pm 8.7 5.5 7.0 89 0.8 WSW 13 20 7 11 1016.5 1016.6 1.2
23/09:00pm 9.2 6.2 7.5 89 0.8 WSW 13 20 7 11 1016.2 1016.3 1.2
23/08:30pm 9.6 6.0 8.4 92 0.6 W 17 26 9 14 1015.9 1016.0 1.2
23/08:00pm 9.7 7.2 8.3 91 0.7 WSW 11 19 6 10 1015.6 1015.7 1.2
23/07:30pm 10.0 7.9 8.3 89 0.8 W 9 15 5 8 1015.3 1015.4 1.2
23/07:00pm 10.5 8.0 8.3 86 1.1 W 11 17 6 9 1015.0 1015.1 1.2
23/06:30pm 11.0 8.2 8.4 84 1.3 WSW 13 19 7 10 1014.8 1014.9 1.2
23/06:00pm 11.2 8.0 6.7 74 2.1 SW 13 24 7 13 1014.5 1014.5 1.2
23/05:30pm 12.2 10.3 9.0 81 1.6 WSW 9 19 5 10 1014.1 1014.1 1.2
23/05:00pm 11.9 8.6 8.2 78 1.8 SW 15 28 8 15 1013.9 1013.9 1.2
23/04:30pm 13.7 10.6 8.7 72 2.5 SW 15 26 8 14 1013.4 1013.4 1.2
23/04:00pm 13.4 10.0 9.1 75 2.2 WSW 17 32 9 17 1013.4 1013.4 1.2
23/03:30pm 14.4 10.9 8.8 69 2.9 WSW 17 26 9 14 1013.0 1013.0 1.2
23/03:00pm 11.3 6.7 8.3 82 1.5 WSW 22 43 12 23 1013.4 1013.4 1.0
23/02:30pm 14.7 11.2 8.6 67 3.1 SW 17 28 9 15 1013.0 1013.0 0.2
23/02:00pm 13.8 9.7 6.4 61 3.6 WSW 17 32 9 17 1013.2 1013.2 0.2
23/01:30pm 16.3 11.7 5.6 49 5.2 W 19 32 10 17 1013.3 1013.3 0.2
23/01:00pm 14.0 10.4 8.4 69 2.8 WSW 17 26 9 14 1013.7 1013.7 0.2
23/12:30pm 14.4 10.6 7.5 63 3.4 SW 17 26 9 14 1013.8 1013.8 0.2
23/12:00pm 15.0 10.7 6.8 58 4.0 W 19 35 10 19 1014.1 1014.1 0.2
23/11:30am 13.3 10.1 9.9 80 1.8 WSW 17 24 9 13 1014.5 1014.5 0.2
23/11:00am 11.9 8.9 9.3 84 1.3 WSW 15 24 8 13 1014.9 1015.0 0.0
23/10:30am 12.9 9.0 7.1 68 2.8 W 17 28 9 15 1014.9 1015.0 0.0
23/10:00am 12.7 8.3 7.6 71 2.5 W 20 33 11 18 1015.0 1015.1 0.0
23/09:30am 11.6 7.3 7.1 74 2.2 W 19 32 10 17 1015.0 1015.1 0.0
23/09:00am 10.8 6.7 7.7 81 1.5 W 19 30 10 16 1015.0 1015.1 0.2
23/08:30am 10.5 7.5 9.3 92 0.6 WNW 15 24 8 13 1014.9 1015.0 0.2
23/08:00am 9.2 6.5 9.1 99 0.0 W 13 19 7 10 1014.8 1014.9 0.2
23/07:30am 8.1 5.2 8.1 100 0.0 WNW 13 19 7 10 1014.6 1014.7 0.2
23/07:00am 7.5 4.5 7.5 100 0.0 WNW 13 22 7 12 1014.3 1014.3 0.2
23/06:30am 7.2 4.1 7.2 100 0.0 WNW 13 22 7 12 1014.0 1014.0 0.2
23/06:00am 6.5 4.0 6.5 100 0.0 WNW 9 13 5 7 1013.7 1013.7 0.2
23/05:30am 6.4 3.5 6.4 100 0.0 WNW 11 15 6 8 1013.3 1013.3 0.2
23/05:00am 6.6 3.7 6.6 100 0.0 NW 11 19 6 10 1013.1 1013.1 0.2
23/04:30am 6.8 4.4 6.8 100 0.0 NW 9 15 5 8 1013.1 1013.1 0.2
23/04:00am 6.6 4.5 6.6 100 0.0 NW 7 11 4 6 1013.2 1013.2 0.2
23/03:30am 6.4 4.2 6.4 100 0.0 NW 7 11 4 6 1013.2 1013.2 0.2
23/03:00am 6.6 4.5 6.5 99 0.0 NW 7 11 4 6 1013.3 1013.3 0.2
23/02:30am 7.0 4.2 6.9 99 0.0 WNW 11 17 6 9 1013.2 1013.2 0.2
23/02:00am 6.9 4.5 6.8 99 0.0 NW 9 13 5 7 1013.2 1013.2 0.2
23/01:30am 7.3 4.9 7.2 99 0.0 NW 9 13 5 7 1013.2 1013.2 0.2
23/01:00am 7.5 4.8 7.4 99 0.0 NW 11 17 6 9 1013.4 1013.4 0.2
23/12:30am 7.7 5.1 7.6 99 0.0 WNW 11 15 6 8 1013.6 1013.6 0.2
23/12:00am 7.3 4.8 6.7 96 0.3 NW 9 15 5 8 1013.6 1013.6 0.2
 
Date/Time
EST
Temp
°C
App
Temp
°C
Dew
Point
°C
Rel
Hum
%
Delta-T
°C
Wind Press
QNH
hPa
Press
MSL
hPa
Rain since
9am
mm
Dir  Spd
km/h
Gust
km/h
Spd
kts
Gust
kts
22/11:30pm 7.1 4.4 5.6 90 0.7 NW 9 13 5 7 1013.7 1013.7 0.2
22/11:00pm 7.7 4.9 5.3 85 1.1 NW 9 13 5 7 1013.8 1013.8 0.2
22/10:30pm 8.4 5.7 5.5 82 1.3 NW 9 15 5 8 1013.7 1013.7 0.2
22/10:00pm 8.9 5.9 6.0 82 1.3 WNW 11 17 6 9 1013.7 1013.7 0.2
22/09:30pm 8.4 5.8 6.0 85 1.1 NW 9 13 5 7 1013.5 1013.5 0.2
22/09:00pm 8.9 5.9 6.2 83 1.2 NW 11 15 6 8 1013.3 1013.3 0.2
22/08:30pm 10.0 6.4 4.8 70 2.4 WNW 13 17 7 9 1013.0 1013.0 0.2
22/08:00pm 10.5 7.3 5.3 70 2.4 WNW 11 19 6 10 1012.7 1012.7 0.2
22/07:30pm 11.5 8.4 5.4 66 2.8 WNW 11 20 6 11 1012.0 1012.0 0.2
22/07:00pm 12.7 9.5 4.9 59 3.6 W 11 17 6 9 1011.4 1011.4 0.2
22/06:30pm 14.0 9.9 4.3 52 4.5 W 15 24 8 13 1011.0 1011.0 0.2
22/06:00pm 14.8 10.4 4.5 50 4.8 W 17 28 9 15 1010.6 1010.6 0.2
22/05:30pm 16.1 10.6 4.2 45 5.6 W 22 39 12 21 1010.1 1010.2 0.2
22/05:00pm 15.9 11.9 8.9 63 3.6 WNW 20 32 11 17 1009.7 1009.8 0.2
22/04:30pm 16.5 12.1 7.2 54 4.7 W 20 35 11 19 1009.5 1009.6 0.2
22/04:00pm 15.6 10.6 7.9 60 3.9 W 24 44 13 24 1009.2 1009.3 0.2
22/03:33pm 17.0 11.3 8.2 56 4.5 WNW 28 46 15 25 1008.9 1009.0 0.2
22/03:30pm 17.1 11.8 8.5 57 4.4 WNW 26 39 14 21 1008.9 1009.0 0.2
22/03:00pm 14.6 9.6 8.1 65 3.3 WNW 24 39 13 21 1008.9 1009.0 0.2
22/02:32pm 15.6 9.6 8.6 63 3.6 WNW 30 50 16 27 1009.0 1009.1 0.2
22/02:30pm 16.0 10.3 8.5 61 3.8 WNW 28 44 15 24 1008.9 1009.0 0.2
22/02:00pm 17.2 10.4 6.7 50 5.2 NW 32 54 17 29 1008.0 1008.0 0.2
22/01:30pm 17.1 10.6 6.3 49 5.3 WNW 30 52 16 28 1007.9 1007.9 0.2
22/01:00pm 15.6 9.6 7.1 57 4.2 NW 28 54 15 29 1008.2 1008.3 0.2
22/12:31pm 18.1 11.3 5.3 43 6.2 WNW 30 48 16 26 1008.2 1008.3 0.0
22/12:30pm 18.1 11.1 6.0 45 6.0 NW 32 48 17 26 1008.2 1008.3 0.0
22/12:18pm 16.4 10.1 5.7 49 5.2 WNW 28 50 15 27 1008.4 1008.5 0.0
22/12:00pm 16.4 9.4 6.0 50 5.1 WNW 32 46 17 25 1008.5 1008.6 0.0
22/11:30am 15.5 9.4 6.5 55 4.4 NW 28 48 15 26 1008.6 1008.7 0.0
22/11:00am 15.2 8.7 6.7 57 4.2 NW 30 57 16 31 1008.8 1008.9 0.0
22/10:34am 15.1 9.1 7.2 59 3.9 NW 28 50 15 27 1008.8 1008.9 0.0
22/10:30am 14.9 8.5 7.0 59 3.9 NW 30 44 16 24 1008.9 1009.0 0.0
22/10:00am 15.0 8.7 7.5 61 3.7 WNW 30 50 16 27 1009.0 1009.1 0.0
22/09:47am 14.1 8.0 6.7 61 3.6 WNW 28 52 15 28 1009.0 1009.1 0.0
22/09:30am 13.9 8.8 7.7 66 3.1 NW 24 39 13 21 1008.9 1009.0 0.0
22/09:00am 13.2 8.2 7.9 70 2.6 NW 24 39 13 21 1008.9 1009.0 0.2
22/08:30am 12.0 7.3 7.9 76 2.0 NW 22 37 12 20 1008.6 1008.7 0.2
22/08:00am 11.4 7.1 7.9 79 1.7 NW 20 33 11 18 1008.6 1008.7 0.2
22/07:30am 10.6 6.6 8.2 85 1.2 NNW 19 26 10 14 1008.5 1008.6 0.2
22/07:00am 9.9 6.7 8.3 90 0.8 NW 15 26 8 14 1008.1 1008.1 0.2
22/06:30am 9.0 5.7 7.9 93 0.5 NW 15 20 8 11 1007.8 1007.8 0.2
22/06:00am 8.6 5.6 7.7 94 0.4 NW 13 22 7 12 1007.7 1007.7 0.2
22/05:30am 8.8 5.8 7.6 92 0.6 NW 13 19 7 10 1007.3 1007.3 0.2
22/05:00am 9.6 7.0 7.7 88 0.9 NW 11 19 6 10 1007.0 1007.0 0.2
22/04:30am 9.8 6.8 7.9 88 0.9 WNW 13 22 7 12 1006.8 1006.8 0.2
22/04:00am 9.4 6.8 7.8 90 0.8 NW 11 17 6 9 1006.7 1006.7 0.2
22/03:30am 8.7 6.2 6.7 87 0.9 NNW 9 13 5 7 1006.6 1006.6 0.2
22/03:00am 9.2 6.4 7.0 86 1.0 NW 11 17 6 9 1006.5 1006.5 0.2
22/02:30am 9.3 6.8 6.7 84 1.2 NNW 9 13 5 7 1006.7 1006.7 0.2
22/02:00am 10.0 7.6 7.1 82 1.4 NW 9 13 5 7 1006.8 1006.8 0.2
22/01:30am 10.9 8.5 7.2 78 1.8 WNW 9 13 5 7 1006.8 1006.8 0.2
22/01:00am 12.3 9.3 7.8 74 2.2 NW 13 20 7 11 1006.8 1006.8 0.2
22/12:30am 12.6 8.8 7.7 72 2.4 WNW 17 24 9 13 1007.0 1007.0 0.2
22/12:00am 13.0 9.4 6.8 66 3.0 WNW 15 24 8 13 1007.0 1007.0 0.2
 
Date/Time
EST
Temp
°C
App
Temp
°C
Dew
Point
°C
Rel
Hum
%
Delta-T
°C
Wind Press
QNH
hPa
Press
MSL
hPa
Rain since
9am
mm
Dir  Spd
km/h
Gust
km/h
Spd
kts
Gust
kts
21/11:30pm 12.2 8.6 4.9 61 3.4 NW 13 19 7 10 1006.7 1006.7 0.2
21/11:00pm 11.9 8.9 4.2 59 3.5 NW 9 15 5 8 1006.7 1006.7 0.2
21/10:30pm 10.8 8.1 3.6 61 3.2 NW 7 9 4 5 1006.6 1006.6 0.2
21/10:00pm 10.4 7.8 3.0 60 3.2 NNW 6 9 3 5 1006.4 1006.4 0.2
21/09:30pm 10.5 7.6 2.8 59 3.3 NW 7 9 4 5 1006.2 1006.2 0.2

Other formats

Comma delimited format used in spreadsheet applications
http://www.bom.gov.au/fwo/IDV60801/IDV60801.94839.axf

JavaScript Object Notation format (JSON) in row-major order
http://www.bom.gov.au/fwo/IDV60801/IDV60801.94839.json

Data quality

Most of these data are generated automatically and are frequently updated. Quality checks on data are not normally performed. It is possible for incorrect values to appear. Refer to information at About Latest Weather Observations and please check the disclaimer before using these data.